sensor_id;sensor_type;location;lat;lon;timestamp;pressure;altitude;pressure_sealevel;temperature;humidity
48888;BME280;42598;53.802;-1.632;2023-02-28T00:00:51;102653.08;;;8.83;69.39
48888;BME280;42598;53.802;-1.632;2023-02-28T00:03:18;102650.95;;;9.31;67.29
48888;BME280;42598;53.802;-1.632;2023-02-28T00:05:45;102648.22;;;8.14;70.60
48888;BME280;42598;53.802;-1.632;2023-02-28T00:08:13;102648.72;;;8.24;70.34
48888;BME280;42598;53.802;-1.632;2023-02-28T00:10:40;102647.81;;;8.28;69.51
48888;BME280;42598;53.802;-1.632;2023-02-28T00:13:08;102648.70;;;8.45;69.11
48888;BME280;42598;53.802;-1.632;2023-02-28T00:15:42;102648.50;;;7.87;70.85
48888;BME280;42598;53.802;-1.632;2023-02-28T00:18:09;102649.45;;;8.09;71.24
48888;BME280;42598;53.802;-1.632;2023-02-28T00:20:36;102656.50;;;7.70;71.64
48888;BME280;42598;53.802;-1.632;2023-02-28T00:23:03;102658.40;;;7.90;71.81
48888;BME280;42598;53.802;-1.632;2023-02-28T00:25:29;102660.43;;;8.76;70.81
48888;BME280;42598;53.802;-1.632;2023-02-28T00:27:56;102663.26;;;8.81;70.83
48888;BME280;42598;53.802;-1.632;2023-02-28T00:30:24;102661.61;;;8.45;71.20
48888;BME280;42598;53.802;-1.632;2023-02-28T00:32:51;102661.26;;;7.77;71.79
48888;BME280;42598;53.802;-1.632;2023-02-28T00:35:18;102664.74;;;7.39;75.75
48888;BME280;42598;53.802;-1.632;2023-02-28T00:37:46;102662.84;;;8.31;70.75
48888;BME280;42598;53.802;-1.632;2023-02-28T00:40:14;102665.65;;;8.50;70.90
48888;BME280;42598;53.802;-1.632;2023-02-28T00:42:41;102666.83;;;9.22;68.38
48888;BME280;42598;53.802;-1.632;2023-02-28T00:45:08;102666.10;;;9.11;68.15
48888;BME280;42598;53.802;-1.632;2023-02-28T00:47:36;102667.26;;;8.85;68.24
48888;BME280;42598;53.802;-1.632;2023-02-28T00:50:04;102671.65;;;8.92;70.20
48888;BME280;42598;53.802;-1.632;2023-02-28T00:52:32;102672.67;;;8.08;70.61
48888;BME280;42598;53.802;-1.632;2023-02-28T00:54:59;102680.23;;;8.64;69.66
48888;BME280;42598;53.802;-1.632;2023-02-28T00:57:26;102676.38;;;8.42;70.12
48888;BME280;42598;53.802;-1.632;2023-02-28T00:59:53;102674.03;;;8.25;70.39
48888;BME280;42598;53.802;-1.632;2023-02-28T01:02:20;102673.80;;;8.46;70.06
48888;BME280;42598;53.802;-1.632;2023-02-28T01:04:47;102672.23;;;8.96;68.52
48888;BME280;42598;53.802;-1.632;2023-02-28T01:07:15;102675.02;;;8.47;69.93
48888;BME280;42598;53.802;-1.632;2023-02-28T01:09:41;102674.57;;;8.56;68.21
48888;BME280;42598;53.802;-1.632;2023-02-28T01:12:09;102670.17;;;8.14;70.06
48888;BME280;42598;53.802;-1.632;2023-02-28T01:14:36;102664.49;;;9.04;67.98
48888;BME280;42598;53.802;-1.632;2023-02-28T01:17:04;102667.28;;;7.27;73.06
48888;BME280;42598;53.802;-1.632;2023-02-28T01:19:30;102667.99;;;8.17;70.07
48888;BME280;42598;53.802;-1.632;2023-02-28T01:22:00;102670.46;;;8.54;70.02
48888;BME280;42598;53.802;-1.632;2023-02-28T01:24:27;102673.43;;;9.05;66.89
48888;BME280;42598;53.802;-1.632;2023-02-28T01:26:54;102669.63;;;9.10;66.55
48888;BME280;42598;53.802;-1.632;2023-02-28T01:29:21;102668.28;;;8.29;69.00
48888;BME280;42598;53.802;-1.632;2023-02-28T01:31:48;102670.17;;;9.11;66.95
48888;BME280;42598;53.802;-1.632;2023-02-28T01:34:19;102669.53;;;8.95;67.20
48888;BME280;42598;53.802;-1.632;2023-02-28T01:36:46;102668.58;;;6.52;75.83
48888;BME280;42598;53.802;-1.632;2023-02-28T01:39:14;102666.53;;;8.15;73.52
48888;BME280;42598;53.802;-1.632;2023-02-28T01:41:49;102664.30;;;8.65;69.51
48888;BME280;42598;53.802;-1.632;2023-02-28T01:45:26;102662.36;;;9.14;68.34
48888;BME280;42598;53.802;-1.632;2023-02-28T01:47:57;102653.89;;;7.96;70.36
48888;BME280;42598;53.802;-1.632;2023-02-28T01:50:28;102655.32;;;7.79;71.35
48888;BME280;42598;53.802;-1.632;2023-02-28T01:52:59;102658.92;;;8.38;68.80
48888;BME280;42598;53.802;-1.632;2023-02-28T01:55:28;102661.30;;;8.88;67.47
48888;BME280;42598;53.802;-1.632;2023-02-28T01:57:58;102662.55;;;8.34;67.82
48888;BME280;42598;53.802;-1.632;2023-02-28T02:00:28;102660.87;;;9.00;67.47
48888;BME280;42598;53.802;-1.632;2023-02-28T02:02:58;102655.17;;;8.27;70.56
48888;BME280;42598;53.802;-1.632;2023-02-28T02:05:29;102652.08;;;7.28;70.75
48888;BME280;42598;53.802;-1.632;2023-02-28T02:08:01;102649.17;;;8.61;69.74
48888;BME280;42598;53.802;-1.632;2023-02-28T02:10:33;102647.85;;;8.07;70.62
48888;BME280;42598;53.802;-1.632;2023-02-28T02:13:12;102647.59;;;8.11;70.90
48888;BME280;42598;53.802;-1.632;2023-02-28T02:15:43;102651.86;;;7.60;72.90
48888;BME280;42598;53.802;-1.632;2023-02-28T02:18:23;102651.47;;;7.68;71.95
48888;BME280;42598;53.802;-1.632;2023-02-28T02:21:22;102654.83;;;8.02;71.15
48888;BME280;42598;53.802;-1.632;2023-02-28T02:26:22;102657.35;;;8.55;72.24
48888;BME280;42598;53.802;-1.632;2023-02-28T02:29:07;102656.35;;;8.25;70.06
48888;BME280;42598;53.802;-1.632;2023-02-28T02:31:51;102653.57;;;9.03;67.89
48888;BME280;42598;53.802;-1.632;2023-02-28T02:34:29;102652.78;;;8.42;69.71
48888;BME280;42598;53.802;-1.632;2023-02-28T02:37:17;102654.40;;;7.87;72.36
48888;BME280;42598;53.802;-1.632;2023-02-28T02:39:55;102650.96;;;7.69;70.32
48888;BME280;42598;53.802;-1.632;2023-02-28T02:42:29;102651.33;;;7.63;71.94
48888;BME280;42598;53.802;-1.632;2023-02-28T02:45:03;102654.74;;;7.43;73.37
48888;BME280;42598;53.802;-1.632;2023-02-28T02:47:35;102655.37;;;8.04;72.72
48888;BME280;42598;53.802;-1.632;2023-02-28T02:50:11;102658.48;;;7.88;71.98
48888;BME280;42598;53.802;-1.632;2023-02-28T02:52:44;102655.79;;;6.55;75.87
48888;BME280;42598;53.802;-1.632;2023-02-28T02:55:13;102657.12;;;7.07;76.07
48888;BME280;42598;53.802;-1.632;2023-02-28T02:57:46;102656.53;;;7.15;75.45
48888;BME280;42598;53.802;-1.632;2023-02-28T03:00:16;102651.72;;;8.21;71.21
48888;BME280;42598;53.802;-1.632;2023-02-28T03:02:46;102652.54;;;7.20;74.54
48888;BME280;42598;53.802;-1.632;2023-02-28T03:05:19;102649.78;;;8.14;71.54
48888;BME280;42598;53.802;-1.632;2023-02-28T03:07:47;102650.84;;;6.99;75.53
48888;BME280;42598;53.802;-1.632;2023-02-28T03:10:34;102652.68;;;6.53;77.58
48888;BME280;42598;53.802;-1.632;2023-02-28T03:13:14;102648.42;;;7.30;75.73
48888;BME280;42598;53.802;-1.632;2023-02-28T03:15:57;102643.53;;;8.41;71.87
48888;BME280;42598;53.802;-1.632;2023-02-28T03:18:32;102646.82;;;6.60;76.67
48888;BME280;42598;53.802;-1.632;2023-02-28T03:21:08;102651.86;;;6.31;79.62
48888;BME280;42598;53.802;-1.632;2023-02-28T03:23:44;102654.33;;;7.30;75.74
48888;BME280;42598;53.802;-1.632;2023-02-28T03:26:18;102655.28;;;6.97;77.05
48888;BME280;42598;53.802;-1.632;2023-02-28T03:28:52;102661.14;;;6.64;78.26
48888;BME280;42598;53.802;-1.632;2023-02-28T03:31:27;102659.46;;;6.50;79.24
48888;BME280;42598;53.802;-1.632;2023-02-28T03:34:01;102658.42;;;7.43;76.95
48888;BME280;42598;53.802;-1.632;2023-02-28T03:36:33;102658.94;;;7.77;76.41
48888;BME280;42598;53.802;-1.632;2023-02-28T03:39:05;102655.89;;;6.69;79.40
48888;BME280;42598;53.802;-1.632;2023-02-28T03:41:38;102657.96;;;7.40;78.09
48888;BME280;42598;53.802;-1.632;2023-02-28T03:44:12;102661.55;;;7.08;77.17
48888;BME280;42598;53.802;-1.632;2023-02-28T03:46:44;102660.92;;;7.95;75.67
48888;BME280;42598;53.802;-1.632;2023-02-28T03:49:18;102655.91;;;7.84;74.73
48888;BME280;42598;53.802;-1.632;2023-02-28T03:51:49;102654.44;;;6.98;76.72
48888;BME280;42598;53.802;-1.632;2023-02-28T03:54:19;102657.60;;;7.34;77.78
48888;BME280;42598;53.802;-1.632;2023-02-28T03:56:53;102660.13;;;7.15;77.28
48888;BME280;42598;53.802;-1.632;2023-02-28T03:59:27;102661.81;;;7.80;75.52
48888;BME280;42598;53.802;-1.632;2023-02-28T04:01:55;102660.70;;;7.39;75.56
48888;BME280;42598;53.802;-1.632;2023-02-28T04:04:24;102661.20;;;7.91;74.44
48888;BME280;42598;53.802;-1.632;2023-02-28T04:06:52;102657.63;;;6.97;78.96
48888;BME280;42598;53.802;-1.632;2023-02-28T04:09:20;102656.49;;;8.23;74.05
48888;BME280;42598;53.802;-1.632;2023-02-28T04:11:51;102658.42;;;7.39;76.07
48888;BME280;42598;53.802;-1.632;2023-02-28T04:14:19;102661.52;;;7.84;75.33
48888;BME280;42598;53.802;-1.632;2023-02-28T04:16:47;102656.51;;;7.74;76.47
48888;BME280;42598;53.802;-1.632;2023-02-28T04:19:14;102650.38;;;6.71;79.31
48888;BME280;42598;53.802;-1.632;2023-02-28T04:21:44;102647.61;;;6.84;79.22
48888;BME280;42598;53.802;-1.632;2023-02-28T04:24:14;102648.54;;;6.94;80.95
48888;BME280;42598;53.802;-1.632;2023-02-28T04:26:43;102650.89;;;6.97;79.65
48888;BME280;42598;53.802;-1.632;2023-02-28T04:29:12;102649.90;;;6.72;79.71
48888;BME280;42598;53.802;-1.632;2023-02-28T04:31:40;102653.02;;;6.39;82.70
48888;BME280;42598;53.802;-1.632;2023-02-28T04:34:07;102656.60;;;6.98;79.66
48888;BME280;42598;53.802;-1.632;2023-02-28T04:36:34;102662.34;;;7.90;77.40
48888;BME280;42598;53.802;-1.632;2023-02-28T04:39:01;102656.85;;;6.31;81.26
48888;BME280;42598;53.802;-1.632;2023-02-28T04:41:29;102661.96;;;6.92;79.41
48888;BME280;42598;53.802;-1.632;2023-02-28T04:43:56;102668.07;;;6.99;79.39
48888;BME280;42598;53.802;-1.632;2023-02-28T04:46:24;102668.91;;;7.08;78.48
48888;BME280;42598;53.802;-1.632;2023-02-28T04:48:51;102667.59;;;7.45;77.33
48888;BME280;42598;53.802;-1.632;2023-02-28T04:51:18;102668.15;;;6.70;79.52
48888;BME280;42598;53.802;-1.632;2023-02-28T04:53:46;102672.87;;;6.33;80.39
48888;BME280;42598;53.802;-1.632;2023-02-28T04:56:16;102673.45;;;7.02;77.41
48888;BME280;42598;53.802;-1.632;2023-02-28T04:58:44;102674.14;;;7.02;77.67
48888;BME280;42598;53.802;-1.632;2023-02-28T05:01:22;102672.63;;;7.82;75.08
48888;BME280;42598;53.802;-1.632;2023-02-28T05:03:50;102678.80;;;7.57;74.45
48888;BME280;42598;53.802;-1.632;2023-02-28T05:06:19;102677.97;;;7.73;73.42
48888;BME280;42598;53.802;-1.632;2023-02-28T05:08:47;102674.93;;;6.50;78.18
48888;BME280;42598;53.802;-1.632;2023-02-28T05:11:17;102672.59;;;7.18;77.20
48888;BME280;42598;53.802;-1.632;2023-02-28T05:13:44;102676.11;;;7.22;75.60
48888;BME280;42598;53.802;-1.632;2023-02-28T05:16:12;102673.79;;;6.66;78.80
48888;BME280;42598;53.802;-1.632;2023-02-28T05:18:39;102674.68;;;6.65;78.14
48888;BME280;42598;53.802;-1.632;2023-02-28T05:21:12;102674.45;;;6.01;80.74
48888;BME280;42598;53.802;-1.632;2023-02-28T05:23:48;102671.85;;;6.66;77.60
48888;BME280;42598;53.802;-1.632;2023-02-28T05:26:14;102670.61;;;5.36;82.32
48888;BME280;42598;53.802;-1.632;2023-02-28T05:28:41;102673.55;;;6.29;80.36
48888;BME280;42598;53.802;-1.632;2023-02-28T05:31:09;102669.79;;;7.17;77.92
48888;BME280;42598;53.802;-1.632;2023-02-28T05:33:37;102674.13;;;6.98;76.77
48888;BME280;42598;53.802;-1.632;2023-02-28T05:36:05;102672.34;;;6.33;76.49
48888;BME280;42598;53.802;-1.632;2023-02-28T05:38:33;102667.76;;;6.29;78.54
48888;BME280;42598;53.802;-1.632;2023-02-28T05:41:05;102676.14;;;6.22;77.71
48888;BME280;42598;53.802;-1.632;2023-02-28T05:43:33;102678.98;;;7.00;76.24
48888;BME280;42598;53.802;-1.632;2023-02-28T05:46:03;102679.85;;;6.21;78.34
48888;BME280;42598;53.802;-1.632;2023-02-28T05:48:30;102675.29;;;6.33;77.77
48888;BME280;42598;53.802;-1.632;2023-02-28T05:50:57;102677.13;;;6.92;77.23
48888;BME280;42598;53.802;-1.632;2023-02-28T05:53:25;102676.40;;;5.55;81.58
48888;BME280;42598;53.802;-1.632;2023-02-28T05:55:52;102680.01;;;6.21;79.39
48888;BME280;42598;53.802;-1.632;2023-02-28T05:58:19;102679.74;;;6.97;77.42
48888;BME280;42598;53.802;-1.632;2023-02-28T06:00:47;102682.93;;;5.83;80.34
48888;BME280;42598;53.802;-1.632;2023-02-28T06:03:14;102684.52;;;5.61;82.02
48888;BME280;42598;53.802;-1.632;2023-02-28T06:05:41;102680.89;;;6.29;78.82
48888;BME280;42598;53.802;-1.632;2023-02-28T06:08:08;102686.47;;;5.38;81.81
48888;BME280;42598;53.802;-1.632;2023-02-28T06:10:35;102692.61;;;4.94;86.44
48888;BME280;42598;53.802;-1.632;2023-02-28T06:13:04;102688.34;;;5.38;86.26
48888;BME280;42598;53.802;-1.632;2023-02-28T06:15:32;102686.29;;;5.85;81.14
48888;BME280;42598;53.802;-1.632;2023-02-28T06:17:59;102689.01;;;5.65;82.10
48888;BME280;42598;53.802;-1.632;2023-02-28T06:20:27;102684.14;;;6.50;78.89
48888;BME280;42598;53.802;-1.632;2023-02-28T06:22:55;102684.70;;;6.45;79.32
48888;BME280;42598;53.802;-1.632;2023-02-28T06:25:22;102681.44;;;5.90;80.41
48888;BME280;42598;53.802;-1.632;2023-02-28T06:27:49;102685.10;;;6.60;77.69
48888;BME280;42598;53.802;-1.632;2023-02-28T06:30:16;102682.22;;;6.85;76.67
48888;BME280;42598;53.802;-1.632;2023-02-28T06:32:44;102680.77;;;6.60;77.71
48888;BME280;42598;53.802;-1.632;2023-02-28T06:35:11;102682.54;;;6.06;77.79
48888;BME280;42598;53.802;-1.632;2023-02-28T06:37:37;102687.02;;;6.40;77.19
48888;BME280;42598;53.802;-1.632;2023-02-28T06:40:05;102694.55;;;5.20;83.31
48888;BME280;42598;53.802;-1.632;2023-02-28T06:42:38;102689.01;;;6.32;78.56
48888;BME280;42598;53.802;-1.632;2023-02-28T06:45:06;102696.57;;;4.47;85.41
48888;BME280;42598;53.802;-1.632;2023-02-28T06:47:40;102701.12;;;5.30;85.23
48888;BME280;42598;53.802;-1.632;2023-02-28T06:50:11;102703.40;;;5.28;81.83
48888;BME280;42598;53.802;-1.632;2023-02-28T06:52:39;102701.89;;;6.68;76.95
48888;BME280;42598;53.802;-1.632;2023-02-28T06:55:07;102706.86;;;5.19;81.29
48888;BME280;42598;53.802;-1.632;2023-02-28T06:57:35;102708.07;;;5.17;83.91
48888;BME280;42598;53.802;-1.632;2023-02-28T07:00:06;102709.59;;;5.29;84.34
48888;BME280;42598;53.802;-1.632;2023-02-28T07:02:34;102714.27;;;5.21;84.26
48888;BME280;42598;53.802;-1.632;2023-02-28T07:05:02;102715.20;;;5.03;83.48
48888;BME280;42598;53.802;-1.632;2023-02-28T07:07:30;102717.01;;;4.97;82.30
48888;BME280;42598;53.802;-1.632;2023-02-28T07:09:57;102719.77;;;5.72;81.20
48888;BME280;42598;53.802;-1.632;2023-02-28T07:12:23;102716.28;;;6.11;78.84
48888;BME280;42598;53.802;-1.632;2023-02-28T07:14:50;102720.46;;;5.61;78.48
48888;BME280;42598;53.802;-1.632;2023-02-28T07:17:17;102716.27;;;6.37;76.84
48888;BME280;42598;53.802;-1.632;2023-02-28T07:19:44;102719.98;;;5.74;77.57
48888;BME280;42598;53.802;-1.632;2023-02-28T07:22:11;102721.98;;;6.42;76.19
48888;BME280;42598;53.802;-1.632;2023-02-28T07:24:38;102731.66;;;5.49;79.91
48888;BME280;42598;53.802;-1.632;2023-02-28T07:27:06;102729.00;;;5.40;81.19
48888;BME280;42598;53.802;-1.632;2023-02-28T07:29:43;102723.35;;;5.06;82.49
48888;BME280;42598;53.802;-1.632;2023-02-28T07:32:11;102724.57;;;4.70;86.05
48888;BME280;42598;53.802;-1.632;2023-02-28T07:34:37;102727.24;;;4.98;82.82
48888;BME280;42598;53.802;-1.632;2023-02-28T07:37:04;102726.01;;;5.24;81.45
48888;BME280;42598;53.802;-1.632;2023-02-28T07:39:31;102729.22;;;5.11;80.59
48888;BME280;42598;53.802;-1.632;2023-02-28T07:41:59;102725.89;;;6.33;77.59
48888;BME280;42598;53.802;-1.632;2023-02-28T07:44:26;102729.64;;;6.01;76.32
48888;BME280;42598;53.802;-1.632;2023-02-28T07:46:53;102728.53;;;6.36;77.20
48888;BME280;42598;53.802;-1.632;2023-02-28T07:49:20;102727.88;;;6.52;75.77
48888;BME280;42598;53.802;-1.632;2023-02-28T07:51:47;102720.31;;;7.47;72.42
48888;BME280;42598;53.802;-1.632;2023-02-28T07:54:21;102719.02;;;7.08;71.85
48888;BME280;42598;53.802;-1.632;2023-02-28T07:56:48;102724.81;;;7.20;69.44
48888;BME280;42598;53.802;-1.632;2023-02-28T07:59:15;102726.42;;;6.80;71.48
48888;BME280;42598;53.802;-1.632;2023-02-28T08:01:43;102727.47;;;7.28;71.29
48888;BME280;42598;53.802;-1.632;2023-02-28T08:04:10;102728.84;;;6.25;73.44
48888;BME280;42598;53.802;-1.632;2023-02-28T08:06:36;102731.60;;;6.24;73.12
48888;BME280;42598;53.802;-1.632;2023-02-28T08:09:03;102732.88;;;7.25;71.40
48888;BME280;42598;53.802;-1.632;2023-02-28T08:11:30;102733.93;;;6.64;73.53
48888;BME280;42598;53.802;-1.632;2023-02-28T08:13:57;102731.61;;;6.45;74.17
48888;BME280;42598;53.802;-1.632;2023-02-28T08:16:25;102732.31;;;6.12;75.83
48888;BME280;42598;53.802;-1.632;2023-02-28T08:18:52;102733.84;;;6.00;75.37
48888;BME280;42598;53.802;-1.632;2023-02-28T08:21:20;102735.45;;;5.02;79.00
48888;BME280;42598;53.802;-1.632;2023-02-28T08:23:48;102734.30;;;6.76;75.53
48888;BME280;42598;53.802;-1.632;2023-02-28T08:26:16;102744.79;;;5.54;78.74
48888;BME280;42598;53.802;-1.632;2023-02-28T08:28:44;102739.82;;;6.64;77.33
48888;BME280;42598;53.802;-1.632;2023-02-28T08:31:14;102739.22;;;6.02;77.56
48888;BME280;42598;53.802;-1.632;2023-02-28T08:33:42;102735.74;;;6.27;76.38
48888;BME280;42598;53.802;-1.632;2023-02-28T08:36:09;102736.72;;;7.46;72.72
48888;BME280;42598;53.802;-1.632;2023-02-28T08:38:37;102745.51;;;6.05;75.69
48888;BME280;42598;53.802;-1.632;2023-02-28T08:41:06;102749.64;;;6.67;74.21
48888;BME280;42598;53.802;-1.632;2023-02-28T08:43:35;102750.96;;;6.89;73.64
48888;BME280;42598;53.802;-1.632;2023-02-28T08:46:03;102749.59;;;7.52;71.70
48888;BME280;42598;53.802;-1.632;2023-02-28T08:48:31;102748.15;;;7.60;71.93
48888;BME280;42598;53.802;-1.632;2023-02-28T08:51:01;102748.71;;;7.57;70.19
48888;BME280;42598;53.802;-1.632;2023-02-28T08:53:28;102748.68;;;6.59;72.30
48888;BME280;42598;53.802;-1.632;2023-02-28T08:55:58;102747.30;;;7.24;70.76
48888;BME280;42598;53.802;-1.632;2023-02-28T08:58:26;102745.64;;;7.78;70.38
48888;BME280;42598;53.802;-1.632;2023-02-28T09:00:53;102744.25;;;7.91;69.12
48888;BME280;42598;53.802;-1.632;2023-02-28T09:03:21;102747.80;;;7.54;70.34
48888;BME280;42598;53.802;-1.632;2023-02-28T09:05:54;102749.55;;;7.13;72.39
48888;BME280;42598;53.802;-1.632;2023-02-28T09:08:21;102751.09;;;6.61;74.87
48888;BME280;42598;53.802;-1.632;2023-02-28T09:10:48;102748.79;;;7.53;72.26
48888;BME280;42598;53.802;-1.632;2023-02-28T09:13:15;102747.88;;;6.99;73.63
48888;BME280;42598;53.802;-1.632;2023-02-28T09:15:42;102748.62;;;6.65;74.96
48888;BME280;42598;53.802;-1.632;2023-02-28T09:18:09;102749.20;;;7.52;72.09
48888;BME280;42598;53.802;-1.632;2023-02-28T09:20:38;102746.65;;;6.11;75.78
48888;BME280;42598;53.802;-1.632;2023-02-28T09:23:05;102748.48;;;7.02;74.76
48888;BME280;42598;53.802;-1.632;2023-02-28T09:25:33;102747.13;;;7.76;70.02
48888;BME280;42598;53.802;-1.632;2023-02-28T09:28:01;102751.38;;;7.55;70.09
48888;BME280;42598;53.802;-1.632;2023-02-28T09:30:29;102752.45;;;7.34;68.56
48888;BME280;42598;53.802;-1.632;2023-02-28T09:32:56;102751.81;;;8.05;65.95
48888;BME280;42598;53.802;-1.632;2023-02-28T09:35:23;102747.56;;;8.57;64.92
48888;BME280;42598;53.802;-1.632;2023-02-28T09:37:52;102753.81;;;8.55;65.29
48888;BME280;42598;53.802;-1.632;2023-02-28T09:40:20;102758.06;;;6.19;72.37
48888;BME280;42598;53.802;-1.632;2023-02-28T09:42:50;102755.47;;;7.15;70.47
48888;BME280;42598;53.802;-1.632;2023-02-28T09:45:23;102759.55;;;6.46;72.81
48888;BME280;42598;53.802;-1.632;2023-02-28T09:47:53;102753.82;;;7.61;70.57
48888;BME280;42598;53.802;-1.632;2023-02-28T09:50:30;102756.12;;;7.28;70.02
48888;BME280;42598;53.802;-1.632;2023-02-28T09:53:00;102755.07;;;8.30;67.34
48888;BME280;42598;53.802;-1.632;2023-02-28T09:55:33;102760.27;;;8.42;67.68
48888;BME280;42598;53.802;-1.632;2023-02-28T09:58:04;102764.57;;;7.39;69.38
48888;BME280;42598;53.802;-1.632;2023-02-28T10:00:35;102762.97;;;7.85;68.69
48888;BME280;42598;53.802;-1.632;2023-02-28T10:03:19;102757.22;;;7.43;70.33
48888;BME280;42598;53.802;-1.632;2023-02-28T10:05:54;102758.17;;;8.31;66.81
48888;BME280;42598;53.802;-1.632;2023-02-28T10:08:26;102761.98;;;8.27;64.22
48888;BME280;42598;53.802;-1.632;2023-02-28T10:10:57;102757.12;;;8.59;64.01
48888;BME280;42598;53.802;-1.632;2023-02-28T10:13:30;102758.46;;;8.52;63.85
48888;BME280;42598;53.802;-1.632;2023-02-28T10:16:02;102757.97;;;7.67;66.70
48888;BME280;42598;53.802;-1.632;2023-02-28T10:18:40;102750.23;;;7.88;66.63
48888;BME280;42598;53.802;-1.632;2023-02-28T10:21:15;102750.37;;;7.48;67.15
48888;BME280;42598;53.802;-1.632;2023-02-28T10:23:44;102750.36;;;8.44;65.43
48888;BME280;42598;53.802;-1.632;2023-02-28T10:26:14;102746.84;;;7.62;68.50
48888;BME280;42598;53.802;-1.632;2023-02-28T10:28:41;102749.66;;;8.77;63.88
48888;BME280;42598;53.802;-1.632;2023-02-28T10:31:11;102751.82;;;9.27;63.73
48888;BME280;42598;53.802;-1.632;2023-02-28T10:33:40;102752.70;;;8.95;62.96
48888;BME280;42598;53.802;-1.632;2023-02-28T10:36:12;102749.83;;;10.22;60.47
48888;BME280;42598;53.802;-1.632;2023-02-28T10:38:40;102744.98;;;8.32;65.33
48888;BME280;42598;53.802;-1.632;2023-02-28T10:41:10;102751.14;;;9.17;62.05
48888;BME280;42598;53.802;-1.632;2023-02-28T10:43:39;102748.76;;;9.20;61.46
48888;BME280;42598;53.802;-1.632;2023-02-28T10:46:13;102749.22;;;9.53;62.15
48888;BME280;42598;53.802;-1.632;2023-02-28T10:48:44;102750.17;;;9.55;61.00
48888;BME280;42598;53.802;-1.632;2023-02-28T10:51:15;102752.22;;;9.09;62.43
48888;BME280;42598;53.802;-1.632;2023-02-28T10:53:48;102754.44;;;8.50;63.27
48888;BME280;42598;53.802;-1.632;2023-02-28T10:56:19;102758.02;;;8.92;62.65
48888;BME280;42598;53.802;-1.632;2023-02-28T10:58:52;102757.91;;;8.21;63.69
48888;BME280;42598;53.802;-1.632;2023-02-28T11:01:22;102754.10;;;8.41;62.87
48888;BME280;42598;53.802;-1.632;2023-02-28T11:03:51;102759.42;;;7.67;67.32
48888;BME280;42598;53.802;-1.632;2023-02-28T11:06:21;102755.23;;;8.73;63.85
48888;BME280;42598;53.802;-1.632;2023-02-28T11:08:52;102757.54;;;8.45;64.59
48888;BME280;42598;53.802;-1.632;2023-02-28T11:11:21;102754.44;;;9.00;63.61
48888;BME280;42598;53.802;-1.632;2023-02-28T11:13:52;102754.53;;;7.41;67.31
48888;BME280;42598;53.802;-1.632;2023-02-28T11:16:21;102755.61;;;7.85;66.99
48888;BME280;42598;53.802;-1.632;2023-02-28T11:18:50;102751.21;;;8.25;65.55
48888;BME280;42598;53.802;-1.632;2023-02-28T11:21:22;102749.16;;;9.08;62.85
48888;BME280;42598;53.802;-1.632;2023-02-28T11:23:54;102742.39;;;9.23;62.16
48888;BME280;42598;53.802;-1.632;2023-02-28T11:26:45;102739.63;;;9.61;61.02
48888;BME280;42598;53.802;-1.632;2023-02-28T11:29:20;102742.16;;;9.60;59.09
48888;BME280;42598;53.802;-1.632;2023-02-28T11:32:48;102746.96;;;7.90;64.82
48888;BME280;42598;53.802;-1.632;2023-02-28T11:35:21;102743.74;;;8.41;66.62
48888;BME280;42598;53.802;-1.632;2023-02-28T11:37:50;102741.22;;;8.02;67.63
48888;BME280;42598;53.802;-1.632;2023-02-28T11:40:20;102744.70;;;7.81;69.27
48888;BME280;42598;53.802;-1.632;2023-02-28T11:42:55;102738.06;;;8.42;67.42
48888;BME280;42598;53.802;-1.632;2023-02-28T11:45:37;102736.33;;;8.03;68.83
48888;BME280;42598;53.802;-1.632;2023-02-28T11:48:15;102735.96;;;7.60;71.10
48888;BME280;42598;53.802;-1.632;2023-02-28T11:50:55;102730.80;;;7.35;71.39
48888;BME280;42598;53.802;-1.632;2023-02-28T11:53:41;102726.40;;;8.99;66.25
48888;BME280;42598;53.802;-1.632;2023-02-28T11:56:21;102722.45;;;8.98;65.12
48888;BME280;42598;53.802;-1.632;2023-02-28T11:58:59;102719.23;;;8.68;67.69
48888;BME280;42598;53.802;-1.632;2023-02-28T12:01:39;102716.84;;;7.20;70.95
48888;BME280;42598;53.802;-1.632;2023-02-28T12:04:25;102708.50;;;7.48;71.25
48888;BME280;42598;53.802;-1.632;2023-02-28T12:07:00;102706.14;;;7.49;72.49
48888;BME280;42598;53.802;-1.632;2023-02-28T12:09:47;102701.97;;;8.01;70.56
48888;BME280;42598;53.802;-1.632;2023-02-28T12:12:27;102698.40;;;8.17;68.22
48888;BME280;42598;53.802;-1.632;2023-02-28T12:15:13;102696.55;;;8.57;68.50
48888;BME280;42598;53.802;-1.632;2023-02-28T12:17:54;102694.57;;;8.47;67.69
48888;BME280;42598;53.802;-1.632;2023-02-28T12:20:33;102692.49;;;8.29;67.57
48888;BME280;42598;53.802;-1.632;2023-02-28T12:23:19;102689.17;;;8.24;67.62
48888;BME280;42598;53.802;-1.632;2023-02-28T12:26:04;102683.82;;;8.87;65.25
48888;BME280;42598;53.802;-1.632;2023-02-28T12:28:40;102685.77;;;8.53;68.18
48888;BME280;42598;53.802;-1.632;2023-02-28T12:31:13;102680.00;;;8.13;66.89
48888;BME280;42598;53.802;-1.632;2023-02-28T12:33:46;102688.37;;;8.58;68.97
48888;BME280;42598;53.802;-1.632;2023-02-28T12:36:18;102674.19;;;7.93;69.04
48888;BME280;42598;53.802;-1.632;2023-02-28T12:38:48;102677.74;;;7.52;73.48
48888;BME280;42598;53.802;-1.632;2023-02-28T12:41:19;102669.14;;;7.91;73.27
48888;BME280;42598;53.802;-1.632;2023-02-28T12:43:55;102668.87;;;7.82;73.77
48888;BME280;42598;53.802;-1.632;2023-02-28T12:46:30;102666.92;;;8.72;70.00
48888;BME280;42598;53.802;-1.632;2023-02-28T12:49:05;102663.98;;;9.68;66.72
48888;BME280;42598;53.802;-1.632;2023-02-28T12:51:35;102657.67;;;9.83;64.10
48888;BME280;42598;53.802;-1.632;2023-02-28T12:54:11;102652.82;;;8.76;68.10
48888;BME280;42598;53.802;-1.632;2023-02-28T12:56:56;102647.66;;;7.99;69.37
48888;BME280;42598;53.802;-1.632;2023-02-28T12:59:34;102652.33;;;8.24;68.93
48888;BME280;42598;53.802;-1.632;2023-02-28T13:02:43;102653.01;;;8.21;66.71
48888;BME280;42598;53.802;-1.632;2023-02-28T13:05:29;102649.58;;;8.45;68.16
48888;BME280;42598;53.802;-1.632;2023-02-28T13:08:15;102636.04;;;8.99;64.37
48888;BME280;42598;53.802;-1.632;2023-02-28T13:10:50;102628.66;;;8.78;62.58
48888;BME280;42598;53.802;-1.632;2023-02-28T13:13:20;102635.22;;;7.75;65.98